createdAt,value
2018-11-23T00:02:04.426Z,91.85
2018-11-23T00:04:52.088Z,92.06
2018-11-23T00:07:39.622Z,91.94
2018-11-23T00:10:11.221Z,91.90
2018-11-23T00:12:38.971Z,92.19
2018-11-23T00:15:09.313Z,92.18
2018-11-23T00:17:57.021Z,92.39
2018-11-23T00:20:44.751Z,91.64
2018-11-23T00:23:32.356Z,91.22
2018-11-23T00:26:20.114Z,91.80
2018-11-23T00:29:07.674Z,92.23
2018-11-23T00:34:10.876Z,91.69
2018-11-23T00:36:58.478Z,91.18
2018-11-23T00:39:27.061Z,91.42
2018-11-23T00:42:14.717Z,91.74
2018-11-23T00:45:02.392Z,91.77
2018-11-23T00:50:25.070Z,91.48
2018-11-23T00:53:12.801Z,91.42
2018-11-23T00:55:41.483Z,91.13
2018-11-23T00:58:29.157Z,92.00
2018-11-23T01:01:16.738Z,91.59
2018-11-23T01:04:04.403Z,91.32
2018-11-23T01:06:52.010Z,90.86
2018-11-23T01:09:39.676Z,91.20
2018-11-23T01:12:27.224Z,91.72
2018-11-23T01:15:14.985Z,91.26
2018-11-23T01:18:02.538Z,91.17
2018-11-23T01:20:50.381Z,91.67
2018-11-23T01:23:38.004Z,91.34
2018-11-23T01:26:25.645Z,91.25
2018-11-23T01:29:13.258Z,91.40
2018-11-23T01:32:01.023Z,91.12
2018-11-23T01:34:48.606Z,91.09
2018-11-23T01:37:36.262Z,91.82
2018-11-23T01:40:24.054Z,91.50
2018-11-23T01:43:11.740Z,91.58
2018-11-23T01:45:59.276Z,91.28
2018-11-23T01:48:46.887Z,91.37
2018-11-23T01:51:34.490Z,91.34
2018-11-23T01:54:22.139Z,91.45
2018-11-23T01:57:09.763Z,91.64
2018-11-23T01:59:57.353Z,91.67
2018-11-23T02:02:45.008Z,91.26
2018-11-23T02:05:13.645Z,90.84
2018-11-23T02:08:01.258Z,91.25
2018-11-23T02:10:48.893Z,91.41
2018-11-23T02:13:36.430Z,91.26
2018-11-23T02:16:24.060Z,91.76
2018-11-23T02:19:11.630Z,91.68
2018-11-23T02:21:59.285Z,91.14
2018-11-23T02:24:46.773Z,91.24
2018-11-23T02:27:34.467Z,91.16
2018-11-23T02:30:03.065Z,91.47
2018-11-23T02:35:05.753Z,91.73
2018-11-23T02:37:53.337Z,91.34
2018-11-23T02:40:22.263Z,91.51
2018-11-23T02:43:09.822Z,91.42
2018-11-23T02:45:38.463Z,91.78
2018-11-23T02:48:26.102Z,90.93
2018-11-23T02:51:13.694Z,91.28
2018-11-23T02:54:01.269Z,91.55
2018-11-23T02:56:58.039Z,91.12
2018-11-23T02:59:45.697Z,91.26
2018-11-23T03:02:33.332Z,90.84
2018-11-23T03:05:02.130Z,91.19
2018-11-23T03:07:49.677Z,91.11
2018-11-23T03:10:37.246Z,91.15
2018-11-23T03:13:25.167Z,91.18
2018-11-23T03:16:12.774Z,91.25
2018-11-23T03:19:00.346Z,90.68
2018-11-23T03:24:22.498Z,90.68
2018-11-23T03:27:10.386Z,90.84
2018-11-23T03:29:57.993Z,91.05
2018-11-23T03:32:45.732Z,91.21
2018-11-23T03:35:33.467Z,91.05
2018-11-23T03:38:02.115Z,90.85
2018-11-23T03:40:49.649Z,91.13
2018-11-23T03:43:37.413Z,90.96
2018-11-23T03:46:06.006Z,91.09
2018-11-23T03:48:53.763Z,90.98
2018-11-23T03:51:41.412Z,91.50
2018-11-23T03:54:29.007Z,91.41
2018-11-23T03:57:16.650Z,90.54
2018-11-23T04:00:04.278Z,90.86
2018-11-23T04:02:51.933Z,91.45
2018-11-23T04:05:39.655Z,91.90
2018-11-23T04:08:27.354Z,91.26
2018-11-23T04:10:56.088Z,91.63
2018-11-23T04:13:43.650Z,92.29
2018-11-23T04:18:46.200Z,91.96
2018-11-23T04:21:33.823Z,92.25
2018-11-23T04:24:21.386Z,92.57
2018-11-23T04:27:09.039Z,92.14
2018-11-23T04:29:56.595Z,92.93
2018-11-23T04:32:44.314Z,92.44
2018-11-23T04:35:31.926Z,91.63
2018-11-23T04:38:19.691Z,90.85
2018-11-23T04:41:07.275Z,91.23
2018-11-23T04:43:35.942Z,91.42
2018-11-23T04:46:04.505Z,91.25
2018-11-23T04:48:52.112Z,91.59
2018-11-23T04:51:39.706Z,91.34
2018-11-23T04:54:27.449Z,90.77
2018-11-23T04:57:15.079Z,90.42
2018-11-23T05:00:02.724Z,90.56
2018-11-23T05:02:50.322Z,90.61
2018-11-23T05:05:37.891Z,91.00
2018-11-23T05:08:25.486Z,91.30
2018-11-23T05:11:13.157Z,90.84
2018-11-23T05:13:41.826Z,91.05
2018-11-23T05:16:29.471Z,90.80
2018-11-23T05:19:17.038Z,90.98
2018-11-23T05:22:04.922Z,90.85
2018-11-23T05:24:52.486Z,90.24
2018-11-23T05:27:40.101Z,90.53
2018-11-23T05:30:29.529Z,90.98
2018-11-23T05:33:17.188Z,90.33
2018-11-23T05:36:04.782Z,90.68
2018-11-23T05:38:52.459Z,91.45
2018-11-23T05:41:40.051Z,91.43
2018-11-23T05:44:27.938Z,91.32
2018-11-23T05:47:15.569Z,91.13
2018-11-23T05:50:03.254Z,91.01
2018-11-23T05:52:31.877Z,91.38
2018-11-23T05:55:00.427Z,91.03
2018-11-23T05:57:48.007Z,90.62
2018-11-23T06:00:36.691Z,90.56
2018-11-23T06:03:24.554Z,90.90
2018-11-23T06:06:12.155Z,90.80
2018-11-23T06:08:59.819Z,90.84
2018-11-23T06:11:28.399Z,91.56
2018-11-23T06:14:16.015Z,92.00
2018-11-23T06:17:03.522Z,91.77
2018-11-23T06:19:51.232Z,91.68
2018-11-23T06:22:38.887Z,91.40
2018-11-23T06:25:10.404Z,90.90
2018-11-23T06:27:57.948Z,91.08
2018-11-23T06:30:45.551Z,91.87
2018-11-23T06:33:52.695Z,91.88
2018-11-23T06:36:21.378Z,90.64
2018-11-23T06:39:09.001Z,89.85
2018-11-23T06:44:11.910Z,90.18
2018-11-23T06:46:59.575Z,90.35
2018-11-23T06:49:47.162Z,90.57
2018-11-23T06:52:36.061Z,89.97
2018-11-23T06:55:23.668Z,90.32
2018-11-23T06:58:11.449Z,90.39
2018-11-23T07:00:59.031Z,90.83
2018-11-23T07:03:46.719Z,90.66
2018-11-23T07:06:34.384Z,91.51
2018-11-23T07:11:37.679Z,91.50
2018-11-23T07:14:25.375Z,91.77
2018-11-23T07:17:12.951Z,92.86
2018-11-23T07:20:00.611Z,93.01
2018-11-23T07:22:29.225Z,93.82
2018-11-23T07:25:16.966Z,92.96
2018-11-23T07:28:04.502Z,92.61
2018-11-23T07:30:52.252Z,93.12
2018-11-23T07:33:39.911Z,93.33
2018-11-23T07:36:27.535Z,93.01
2018-11-23T07:38:56.253Z,93.67
2018-11-23T07:42:03.444Z,93.31
2018-11-23T07:44:51.039Z,92.81
2018-11-23T07:47:38.680Z,92.35
2018-11-23T07:50:27.709Z,91.32
2018-11-23T07:53:15.290Z,91.40
2018-11-23T07:56:02.877Z,91.76
2018-11-23T07:58:50.741Z,91.44
2018-11-23T08:01:38.309Z,91.84
2018-11-23T08:04:07.029Z,91.19
2018-11-23T08:06:54.639Z,92.26
2018-11-23T08:09:42.323Z,93.04
2018-11-23T08:12:10.937Z,92.86
2018-11-23T08:14:58.527Z,93.25
2018-11-23T08:17:46.104Z,92.98
2018-11-23T08:20:33.799Z,91.96
2018-11-23T08:23:21.358Z,91.87
2018-11-23T08:26:09.125Z,91.99
2018-11-23T08:28:37.831Z,91.46
2018-11-23T08:31:06.466Z,92.49
2018-11-23T08:33:54.151Z,94.11
2018-11-23T08:36:41.761Z,94.40
2018-11-23T08:39:29.514Z,94.87
2018-11-23T08:42:17.102Z,93.93
2018-11-23T08:45:04.948Z,94.39
2018-11-23T08:47:52.542Z,95.04
2018-11-23T08:50:41.082Z,94.56
2018-11-23T08:53:28.654Z,95.06
2018-11-23T08:56:16.322Z,95.37
2018-11-23T08:59:03.913Z,96.13
2018-11-23T09:01:32.595Z,96.33
2018-11-23T09:04:20.231Z,96.03
2018-11-23T09:07:07.803Z,95.21
2018-11-23T09:09:55.484Z,93.92
2018-11-23T09:12:43.291Z,94.04
2018-11-23T09:15:30.999Z,94.13
2018-11-23T09:18:18.739Z,94.46
2018-11-23T09:21:06.318Z,93.82
2018-11-23T09:23:54.031Z,93.71
2018-11-23T09:26:22.632Z,93.39
2018-11-23T09:29:10.419Z,94.00
2018-11-23T09:31:57.961Z,93.57
2018-11-23T09:34:45.561Z,93.66
2018-11-23T09:37:33.253Z,93.72
2018-11-23T09:40:20.964Z,93.14
2018-11-23T09:43:08.518Z,92.48
2018-11-23T09:45:56.294Z,92.08
2018-11-23T09:48:24.878Z,91.43
2018-11-23T09:51:12.509Z,91.18
2018-11-23T09:54:00.069Z,91.36
2018-11-23T09:56:47.910Z,90.43
2018-11-23T09:59:35.453Z,90.91
2018-11-23T10:02:23.117Z,91.64
2018-11-23T10:05:10.660Z,92.27
2018-11-23T10:07:58.443Z,92.66
2018-11-23T10:16:00.369Z,92.90
2018-11-23T10:18:28.980Z,92.27
2018-11-23T10:21:16.561Z,92.49
2018-11-23T10:24:04.177Z,92.05
2018-11-23T10:26:51.881Z,92.23
2018-11-23T10:29:39.549Z,91.90
2018-11-23T10:32:27.197Z,91.41
2018-11-23T10:34:55.823Z,91.41
2018-11-23T10:37:43.527Z,91.60
2018-11-23T10:40:32.353Z,91.25
2018-11-23T10:43:20.017Z,90.76
2018-11-23T10:46:07.601Z,90.13
2018-11-23T10:51:30.079Z,88.93
2018-11-23T10:54:17.669Z,89.85
2018-11-23T10:56:46.239Z,89.47
2018-11-23T10:59:33.909Z,88.69
2018-11-23T11:02:21.444Z,90.03
2018-11-23T11:05:09.129Z,90.54
2018-11-23T11:07:56.696Z,90.49
2018-11-23T11:10:44.293Z,89.55
2018-11-23T11:13:31.864Z,88.54
2018-11-23T11:16:00.652Z,88.38
2018-11-23T11:18:48.161Z,89.20
2018-11-23T11:21:35.974Z,88.00
2018-11-23T11:24:23.533Z,85.38
2018-11-23T11:27:11.187Z,86.09
2018-11-23T11:29:58.747Z,85.73
2018-11-23T11:32:46.404Z,85.92
2018-11-23T11:35:34.062Z,86.34
2018-11-23T11:38:21.759Z,85.68
2018-11-23T11:40:50.416Z,85.22
2018-11-23T11:43:38.108Z,85.59
2018-11-23T11:46:25.858Z,85.76
2018-11-23T11:49:13.541Z,84.37
2018-11-23T11:52:01.106Z,84.27
2018-11-23T11:54:48.773Z,84.62
2018-11-23T11:57:17.377Z,85.13
2018-11-23T12:00:05.065Z,84.84
2018-11-23T12:02:52.631Z,84.58
2018-11-23T12:05:40.212Z,84.55
2018-11-23T12:08:27.755Z,84.14
2018-11-23T12:11:15.365Z,84.07
2018-11-23T12:14:03.005Z,83.97
2018-11-23T12:19:08.106Z,83.08
2018-11-23T12:24:09.367Z,83.58
2018-11-23T12:26:56.976Z,83.07
2018-11-23T12:29:25.676Z,83.14
2018-11-23T12:32:13.308Z,83.29
2018-11-23T12:35:00.898Z,82.87
2018-11-23T12:37:48.562Z,83.50
2018-11-23T12:40:36.152Z,82.76
2018-11-23T12:43:23.869Z,82.06
2018-11-23T12:46:11.514Z,82.46
2018-11-23T12:48:59.304Z,83.10
2018-11-23T12:51:46.862Z,83.38
2018-11-23T12:54:34.647Z,83.28
2018-11-23T12:57:03.200Z,82.66
2018-11-23T12:59:31.943Z,82.45
2018-11-23T13:02:19.509Z,82.33
2018-11-23T13:04:48.161Z,82.02
2018-11-23T13:07:35.805Z,82.15
2018-11-23T13:12:39.605Z,82.59
2018-11-23T13:15:27.358Z,82.65
2018-11-23T13:18:15.013Z,82.54
2018-11-23T13:21:02.696Z,82.31
2018-11-23T13:23:50.246Z,82.41
2018-11-23T13:28:52.750Z,81.87
2018-11-23T13:31:40.405Z,81.70
2018-11-23T13:34:08.930Z,81.91
2018-11-23T13:36:37.511Z,81.72
2018-11-23T13:39:26.253Z,81.58
2018-11-23T13:42:14.006Z,81.38
2018-11-23T13:45:01.558Z,81.50
2018-11-23T13:47:30.357Z,81.25
2018-11-23T13:49:59.004Z,81.08
2018-11-23T13:52:46.699Z,80.93
2018-11-23T13:55:34.354Z,81.17
2018-11-23T13:58:22.015Z,81.22
2018-11-23T14:01:09.485Z,81.36
2018-11-23T14:03:57.149Z,81.22
2018-11-23T14:06:44.837Z,80.81
2018-11-23T14:11:47.707Z,80.76
2018-11-23T14:14:35.386Z,80.71
2018-11-23T14:17:23.010Z,80.13
2018-11-23T14:19:51.708Z,80.23
2018-11-23T14:22:39.313Z,80.17
2018-11-23T14:25:27.949Z,80.70
2018-11-23T14:28:15.739Z,80.84
2018-11-23T14:30:44.281Z,81.00
2018-11-23T14:33:31.917Z,81.24
2018-11-23T14:38:34.692Z,81.44
2018-11-23T14:41:22.320Z,81.70
2018-11-23T14:44:09.987Z,81.90
2018-11-23T14:49:13.220Z,82.33
2018-11-23T14:51:41.841Z,82.49
2018-11-23T14:54:29.381Z,82.58
2018-11-23T14:59:32.228Z,82.69
2018-11-23T15:02:19.921Z,83.16
2018-11-23T15:05:07.556Z,83.48
2018-11-23T15:07:36.923Z,83.50
2018-11-23T15:10:27.149Z,83.48
2018-11-23T15:12:57.138Z,83.01
2018-11-23T15:15:27.214Z,84.07
2018-11-23T15:18:14.811Z,84.45
2018-11-23T15:21:04.236Z,84.40
2018-11-23T15:26:07.229Z,85.46
2018-11-23T15:31:10.248Z,85.62
2018-11-23T15:33:57.965Z,85.58
2018-11-23T15:36:26.837Z,85.61
2018-11-23T15:38:55.378Z,86.04
2018-11-23T15:41:43.061Z,85.56
2018-11-23T15:44:30.780Z,86.14
2018-11-23T15:47:18.401Z,86.06
2018-11-23T15:50:06.068Z,86.72
2018-11-23T15:52:34.672Z,86.79
2018-11-23T15:55:22.288Z,87.15
2018-11-23T15:57:51.946Z,87.31
2018-11-23T16:00:40.965Z,87.29
2018-11-23T16:03:29.665Z,87.11
2018-11-23T16:06:17.341Z,87.49
2018-11-23T16:09:05.008Z,87.54
2018-11-23T16:11:33.625Z,88.41
2018-11-23T16:14:02.320Z,88.34
2018-11-23T16:16:50.086Z,88.27
2018-11-23T16:19:37.735Z,87.83
2018-11-23T16:22:25.451Z,88.03
2018-11-23T16:25:13.140Z,88.96
2018-11-23T16:28:00.852Z,89.00
2018-11-23T16:30:48.390Z,89.48
2018-11-23T16:33:36.145Z,89.49
2018-11-23T16:36:23.690Z,89.46
2018-11-23T16:38:52.471Z,90.50
2018-11-23T16:41:40.006Z,91.37
2018-11-23T16:44:27.693Z,90.95
2018-11-23T16:47:15.328Z,91.35
2018-11-23T16:50:03.007Z,92.08
2018-11-23T16:52:31.592Z,92.69
2018-11-23T16:55:19.481Z,92.20
2018-11-23T16:57:52.397Z,91.86
2018-11-23T17:00:40.082Z,91.33
2018-11-23T17:03:09.724Z,90.94
2018-11-23T17:05:57.606Z,91.45
2018-11-23T17:08:45.372Z,91.17
2018-11-23T17:11:33.017Z,91.56
2018-11-23T17:14:20.632Z,92.03
2018-11-23T17:19:23.670Z,92.61
2018-11-23T17:22:11.360Z,92.90
2018-11-23T17:24:59.004Z,92.84
2018-11-23T17:27:46.769Z,94.77
2018-11-23T17:30:34.497Z,96.24
2018-11-23T17:33:22.082Z,96.04
2018-11-23T17:36:09.617Z,96.44
2018-11-23T17:38:57.391Z,97.05
2018-11-23T17:41:44.989Z,97.96
2018-11-23T17:44:32.657Z,98.13
2018-11-23T17:47:20.317Z,97.95
2018-11-23T17:50:08.060Z,98.28
2018-11-23T17:52:36.726Z,99.19
2018-11-23T17:55:24.841Z,99.00
2018-11-23T17:58:12.537Z,99.81
2018-11-23T18:01:00.207Z,99.79
2018-11-23T18:03:28.793Z,100.00
2018-11-23T18:06:16.502Z,99.79
2018-11-23T18:08:45.170Z,99.86
2018-11-23T18:11:13.786Z,100.00
2018-11-23T18:13:42.385Z,100.00
2018-11-23T18:16:10.974Z,100.00
2018-11-23T18:18:58.620Z,100.00
2018-11-23T18:21:46.295Z,100.00
2018-11-23T18:24:33.950Z,100.00
2018-11-23T18:27:21.553Z,100.00
2018-11-23T18:32:38.169Z,100.00
2018-11-23T18:35:26.963Z,100.00
2018-11-23T18:38:14.580Z,100.00
2018-11-23T18:40:43.212Z,100.00
2018-11-23T18:43:11.769Z,100.00
2018-11-23T18:45:59.390Z,100.00
2018-11-23T18:48:46.966Z,100.00
2018-11-23T18:51:34.698Z,100.00
2018-11-23T18:54:22.328Z,100.00
2018-11-23T18:56:50.925Z,100.00
2018-11-23T18:59:38.622Z,100.00
2018-11-23T19:02:26.238Z,100.00
2018-11-23T19:04:54.911Z,100.00
2018-11-23T19:07:42.794Z,100.00
2018-11-23T19:10:31.578Z,100.00
2018-11-23T19:13:19.246Z,100.00
2018-11-23T19:15:47.793Z,100.00
2018-11-23T19:18:16.429Z,100.00
2018-11-23T19:21:03.982Z,100.00
2018-11-23T19:23:51.998Z,100.00
2018-11-23T19:26:39.577Z,100.00
2018-11-23T19:29:27.194Z,100.00
2018-11-23T19:32:14.760Z,100.00
2018-11-23T19:35:02.395Z,100.00
2018-11-23T19:37:49.933Z,100.00
2018-11-23T19:40:37.651Z,100.00
2018-11-23T19:43:25.350Z,100.00
2018-11-23T19:46:13.057Z,100.00
2018-11-23T19:49:00.611Z,100.00
2018-11-23T19:51:48.342Z,100.00
2018-11-23T19:54:35.970Z,100.00
2018-11-23T19:57:23.867Z,100.00
2018-11-23T20:00:11.557Z,100.00
2018-11-23T20:02:59.302Z,100.00
2018-11-23T20:05:46.906Z,100.00
2018-11-23T20:08:34.489Z,100.00
2018-11-23T20:11:22.057Z,100.00
2018-11-23T20:14:09.726Z,100.00
2018-11-23T20:16:57.326Z,100.00
2018-11-23T20:19:26.070Z,100.00
2018-11-23T20:22:13.615Z,100.00
2018-11-23T20:25:01.239Z,100.00
2018-11-23T20:27:48.797Z,100.00
2018-11-23T20:32:54.302Z,100.00
2018-11-23T20:35:23.446Z,100.00
2018-11-23T20:37:52.075Z,100.00
2018-11-23T20:40:40.749Z,100.00
2018-11-23T20:51:23.350Z,100.00
2018-11-23T20:53:51.932Z,100.00
2018-11-23T20:56:20.515Z,100.00
2018-11-23T20:58:49.117Z,100.00
2018-11-23T21:01:17.676Z,100.00
2018-11-23T21:03:46.221Z,100.00
2018-11-23T21:06:14.786Z,100.00
2018-11-23T21:08:43.343Z,100.00
2018-11-23T21:11:11.962Z,100.00
2018-11-23T21:13:40.540Z,100.00
2018-11-23T21:16:09.094Z,100.00
2018-11-23T21:18:37.677Z,100.00
2018-11-23T21:21:06.473Z,100.00
2018-11-23T21:23:35.081Z,100.00
2018-11-23T21:26:03.657Z,100.00
2018-11-23T21:28:32.194Z,100.00
2018-11-23T21:31:00.771Z,100.00
2018-11-23T21:33:29.312Z,100.00
2018-11-23T21:35:57.998Z,100.00
2018-11-23T21:38:26.533Z,100.00
2018-11-23T21:40:55.095Z,100.00
2018-11-23T21:43:23.673Z,100.00
2018-11-23T21:45:52.248Z,100.00
2018-11-23T21:48:20.838Z,100.00
2018-11-23T21:50:49.436Z,100.00
2018-11-23T21:53:18.005Z,100.00
2018-11-23T21:55:46.647Z,100.00
2018-11-23T21:58:15.119Z,100.00
2018-11-23T22:00:43.798Z,100.00
2018-11-23T22:03:12.340Z,100.00
2018-11-23T22:05:40.883Z,100.00
2018-11-23T22:08:09.534Z,100.00
2018-11-23T22:10:38.030Z,100.00
2018-11-23T22:13:06.638Z,100.00
2018-11-23T22:15:35.164Z,100.00
2018-11-23T22:18:03.757Z,100.00
2018-11-23T22:20:32.579Z,100.00
2018-11-23T22:23:01.113Z,100.00
2018-11-23T22:25:29.668Z,100.00
2018-11-23T22:27:58.300Z,99.31
2018-11-23T22:30:28.087Z,99.65
2018-11-23T22:32:56.680Z,99.99
2018-11-23T22:35:25.673Z,99.76
2018-11-23T22:37:54.240Z,99.46
2018-11-23T22:40:22.800Z,99.62
2018-11-23T22:42:55.625Z,99.50
2018-11-23T22:45:24.179Z,98.82
2018-11-23T22:47:52.762Z,98.55
2018-11-23T22:50:22.238Z,98.62
2018-11-23T22:52:50.824Z,98.62
2018-11-23T22:55:19.751Z,98.98
2018-11-23T22:57:48.429Z,99.61
2018-11-23T23:00:36.542Z,99.61
2018-11-23T23:03:05.132Z,99.52
2018-11-23T23:05:33.671Z,99.02
2018-11-23T23:08:02.239Z,98.65
2018-11-23T23:10:30.869Z,99.02
2018-11-23T23:12:59.466Z,98.45
2018-11-23T23:15:27.986Z,98.67
2018-11-23T23:17:56.521Z,98.51
2018-11-23T23:20:25.188Z,98.59
2018-11-23T23:22:53.740Z,98.17
2018-11-23T23:25:22.285Z,98.64
2018-11-23T23:27:50.868Z,99.04
2018-11-23T23:30:19.519Z,98.89
2018-11-23T23:32:48.659Z,99.09
2018-11-23T23:35:17.685Z,99.17
2018-11-23T23:37:46.253Z,99.23
2018-11-23T23:40:18.350Z,98.93
2018-11-23T23:42:47.363Z,98.92
2018-11-23T23:45:19.255Z,98.69
2018-11-23T23:47:47.795Z,98.62
2018-11-23T23:50:20.239Z,98.50
2018-11-23T23:52:48.975Z,98.56
2018-11-23T23:55:17.514Z,98.52
2018-11-23T23:57:46.634Z,98.42
